sensor_id;sensor_type;location;lat;lon;timestamp;temperature;humidity
70170;DHT22;57543;45.442;9.212;2024-02-21T00:01:22;13.41;72.95
70170;DHT22;57543;45.442;9.212;2024-02-21T00:04:25;13.22;73.36
70170;DHT22;57543;45.442;9.212;2024-02-21T00:07:28;13.25;73.62
70170;DHT22;57543;45.442;9.212;2024-02-21T00:10:32;13.32;73.51
70170;DHT22;57543;45.442;9.212;2024-02-21T00:13:36;13.36;73.23
70170;DHT22;57543;45.442;9.212;2024-02-21T00:16:40;13.28;73.26
70170;DHT22;57543;45.442;9.212;2024-02-21T00:19:46;13.25;73.41
70170;DHT22;57543;45.442;9.212;2024-02-21T00:22:52;13.11;73.52
70170;DHT22;57543;45.442;9.212;2024-02-21T00:25:56;13.07;73.51
70170;DHT22;57543;45.442;9.212;2024-02-21T00:28:59;13.08;73.49
70170;DHT22;57543;45.442;9.212;2024-02-21T00:32:03;13.03;73.67
70170;DHT22;57543;45.442;9.212;2024-02-21T00:35:07;13.01;73.59
70170;DHT22;57543;45.442;9.212;2024-02-21T00:38:11;12.94;73.68
70170;DHT22;57543;45.442;9.212;2024-02-21T00:41:16;12.79;74.00
70170;DHT22;57543;45.442;9.212;2024-02-21T00:44:20;12.67;74.53
70170;DHT22;57543;45.442;9.212;2024-02-21T00:47:23;12.53;74.83
70170;DHT22;57543;45.442;9.212;2024-02-21T00:50:26;12.67;74.35
70170;DHT22;57543;45.442;9.212;2024-02-21T00:53:30;12.60;74.18
70170;DHT22;57543;45.442;9.212;2024-02-21T00:56:33;12.56;74.20
70170;DHT22;57543;45.442;9.212;2024-02-21T00:59:39;12.59;74.02
70170;DHT22;57543;45.442;9.212;2024-02-21T01:02:44;12.60;73.55
70170;DHT22;57543;45.442;9.212;2024-02-21T01:05:48;12.55;73.51
70170;DHT22;57543;45.442;9.212;2024-02-21T01:08:52;12.46;73.64
70170;DHT22;57543;45.442;9.212;2024-02-21T01:11:55;12.52;73.76
70170;DHT22;57543;45.442;9.212;2024-02-21T01:15:02;12.59;73.24
70170;DHT22;57543;45.442;9.212;2024-02-21T01:18:05;12.53;73.14
70170;DHT22;57543;45.442;9.212;2024-02-21T01:21:10;12.52;73.22
70170;DHT22;57543;45.442;9.212;2024-02-21T01:24:14;12.62;73.17
70170;DHT22;57543;45.442;9.212;2024-02-21T01:27:18;12.57;72.92
70170;DHT22;57543;45.442;9.212;2024-02-21T01:30:23;12.59;72.86
70170;DHT22;57543;45.442;9.212;2024-02-21T01:33:30;12.60;72.80
70170;DHT22;57543;45.442;9.212;2024-02-21T01:36:38;12.41;72.96
70170;DHT22;57543;45.442;9.212;2024-02-21T01:39:41;12.44;72.95
70170;DHT22;57543;45.442;9.212;2024-02-21T01:42:45;12.50;72.60
70170;DHT22;57543;45.442;9.212;2024-02-21T01:45:52;12.44;72.37
70170;DHT22;57543;45.442;9.212;2024-02-21T01:49:01;12.36;72.31
70170;DHT22;57543;45.442;9.212;2024-02-21T01:52:05;12.35;72.06
70170;DHT22;57543;45.442;9.212;2024-02-21T01:55:10;12.35;72.12
70170;DHT22;57543;45.442;9.212;2024-02-21T01:58:18;12.28;72.14
70170;DHT22;57543;45.442;9.212;2024-02-21T02:01:25;12.41;71.53
70170;DHT22;57543;45.442;9.212;2024-02-21T02:04:28;12.41;71.22
70170;DHT22;57543;45.442;9.212;2024-02-21T02:07:36;12.29;70.57
70170;DHT22;57543;45.442;9.212;2024-02-21T02:10:40;12.29;70.49
70170;DHT22;57543;45.442;9.212;2024-02-21T02:13:44;12.28;69.94
70170;DHT22;57543;45.442;9.212;2024-02-21T02:16:48;12.31;69.61
70170;DHT22;57543;45.442;9.212;2024-02-21T02:19:52;12.29;69.42
70170;DHT22;57543;45.442;9.212;2024-02-21T02:22:57;12.32;69.46
70170;DHT22;57543;45.442;9.212;2024-02-21T02:26:02;12.29;69.11
70170;DHT22;57543;45.442;9.212;2024-02-21T02:29:06;12.29;69.22
70170;DHT22;57543;45.442;9.212;2024-02-21T02:32:12;12.29;69.27
70170;DHT22;57543;45.442;9.212;2024-02-21T02:35:15;12.29;69.34
70170;DHT22;57543;45.442;9.212;2024-02-21T02:38:19;12.22;69.53
70170;DHT22;57543;45.442;9.212;2024-02-21T02:41:23;12.21;69.58
70170;DHT22;57543;45.442;9.212;2024-02-21T02:44:32;12.21;69.51
70170;DHT22;57543;45.442;9.212;2024-02-21T02:47:39;12.14;69.69
70170;DHT22;57543;45.442;9.212;2024-02-21T02:50:43;12.22;69.65
70170;DHT22;57543;45.442;9.212;2024-02-21T02:53:47;12.10;69.31
70170;DHT22;57543;45.442;9.212;2024-02-21T02:56:50;12.10;69.17
70170;DHT22;57543;45.442;9.212;2024-02-21T02:59:55;12.04;69.12
70170;DHT22;57543;45.442;9.212;2024-02-21T03:03:01;12.11;68.37
70170;DHT22;57543;45.442;9.212;2024-02-21T03:06:07;12.14;67.81
70170;DHT22;57543;45.442;9.212;2024-02-21T03:09:13;12.31;66.97
70170;DHT22;57543;45.442;9.212;2024-02-21T03:12:21;12.27;66.86
70170;DHT22;57543;45.442;9.212;2024-02-21T03:15:31;12.32;66.39
70170;DHT22;57543;45.442;9.212;2024-02-21T03:18:34;12.42;65.55
70170;DHT22;57543;45.442;9.212;2024-02-21T03:21:38;12.41;64.91
70170;DHT22;57543;45.442;9.212;2024-02-21T03:24:42;12.45;64.30
70170;DHT22;57543;45.442;9.212;2024-02-21T03:27:46;12.38;63.44
70170;DHT22;57543;45.442;9.212;2024-02-21T03:30:50;12.25;63.27
70170;DHT22;57543;45.442;9.212;2024-02-21T03:33:56;12.32;63.28
70170;DHT22;57543;45.442;9.212;2024-02-21T03:37:02;12.21;62.62
70170;DHT22;57543;45.442;9.212;2024-02-21T03:40:08;12.11;62.31
70170;DHT22;57543;45.442;9.212;2024-02-21T03:43:12;12.08;61.83
70170;DHT22;57543;45.442;9.212;2024-02-21T03:46:15;11.97;62.29
70170;DHT22;57543;45.442;9.212;2024-02-21T03:49:18;12.07;62.21
70170;DHT22;57543;45.442;9.212;2024-02-21T03:52:22;11.93;62.15
70170;DHT22;57543;45.442;9.212;2024-02-21T03:55:26;11.84;62.71
70170;DHT22;57543;45.442;9.212;2024-02-21T03:58:30;11.89;62.69
70170;DHT22;57543;45.442;9.212;2024-02-21T04:01:35;11.89;62.92
70170;DHT22;57543;45.442;9.212;2024-02-21T04:04:44;11.89;63.38
70170;DHT22;57543;45.442;9.212;2024-02-21T04:07:50;11.86;63.74
70170;DHT22;57543;45.442;9.212;2024-02-21T04:10:55;11.83;63.60
70170;DHT22;57543;45.442;9.212;2024-02-21T04:14:01;11.87;63.55
70170;DHT22;57543;45.442;9.212;2024-02-21T04:17:05;11.82;63.81
70170;DHT22;57543;45.442;9.212;2024-02-21T04:20:16;11.82;63.74
70170;DHT22;57543;45.442;9.212;2024-02-21T04:23:21;11.72;64.08
70170;DHT22;57543;45.442;9.212;2024-02-21T04:26:24;11.67;64.04
70170;DHT22;57543;45.442;9.212;2024-02-21T04:29:27;11.76;63.71
70170;DHT22;57543;45.442;9.212;2024-02-21T04:32:32;11.77;63.72
70170;DHT22;57543;45.442;9.212;2024-02-21T04:35:43;11.82;63.63
70170;DHT22;57543;45.442;9.212;2024-02-21T04:38:46;11.91;63.04
70170;DHT22;57543;45.442;9.212;2024-02-21T04:41:52;12.00;62.37
70170;DHT22;57543;45.442;9.212;2024-02-21T04:44:56;11.98;61.79
70170;DHT22;57543;45.442;9.212;2024-02-21T04:48:03;11.86;61.73
70170;DHT22;57543;45.442;9.212;2024-02-21T04:51:06;11.89;61.78
70170;DHT22;57543;45.442;9.212;2024-02-21T04:54:12;11.87;61.57
70170;DHT22;57543;45.442;9.212;2024-02-21T04:57:15;11.91;61.37
70170;DHT22;57543;45.442;9.212;2024-02-21T05:00:20;11.97;61.17
70170;DHT22;57543;45.442;9.212;2024-02-21T05:03:24;11.91;61.12
70170;DHT22;57543;45.442;9.212;2024-02-21T05:06:31;11.86;61.37
70170;DHT22;57543;45.442;9.212;2024-02-21T05:09:35;11.82;61.24
70170;DHT22;57543;45.442;9.212;2024-02-21T05:12:40;11.80;61.54
70170;DHT22;57543;45.442;9.212;2024-02-21T05:15:44;11.76;61.04
70170;DHT22;57543;45.442;9.212;2024-02-21T05:18:48;11.74;60.83
70170;DHT22;57543;45.442;9.212;2024-02-21T05:21:51;11.77;60.60
70170;DHT22;57543;45.442;9.212;2024-02-21T05:24:54;11.76;60.15
70170;DHT22;57543;45.442;9.212;2024-02-21T05:27:58;11.63;60.33
70170;DHT22;57543;45.442;9.212;2024-02-21T05:31:05;11.56;60.49
70170;DHT22;57543;45.442;9.212;2024-02-21T05:34:11;11.51;60.65
70170;DHT22;57543;45.442;9.212;2024-02-21T05:37:15;11.46;60.93
70170;DHT22;57543;45.442;9.212;2024-02-21T05:40:19;11.48;60.14
70170;DHT22;57543;45.442;9.212;2024-02-21T05:43:22;11.42;60.26
70170;DHT22;57543;45.442;9.212;2024-02-21T05:46:33;11.48;59.79
70170;DHT22;57543;45.442;9.212;2024-02-21T05:49:37;11.49;59.62
70170;DHT22;57543;45.442;9.212;2024-02-21T05:52:42;11.69;59.19
70170;DHT22;57543;45.442;9.212;2024-02-21T05:55:48;11.79;58.81
70170;DHT22;57543;45.442;9.212;2024-02-21T05:58:51;11.84;58.71
70170;DHT22;57543;45.442;9.212;2024-02-21T06:01:56;11.93;58.43
70170;DHT22;57543;45.442;9.212;2024-02-21T06:05:01;11.82;57.81
70170;DHT22;57543;45.442;9.212;2024-02-21T06:08:11;11.62;58.05
70170;DHT22;57543;45.442;9.212;2024-02-21T06:11:14;11.48;57.02
70170;DHT22;57543;45.442;9.212;2024-02-21T06:14:19;11.43;56.93
70170;DHT22;57543;45.442;9.212;2024-02-21T06:17:23;11.54;56.61
70170;DHT22;57543;45.442;9.212;2024-02-21T06:20:30;11.66;55.80
70170;DHT22;57543;45.442;9.212;2024-02-21T06:23:33;11.56;55.31
70170;DHT22;57543;45.442;9.212;2024-02-21T06:26:36;11.59;55.40
70170;DHT22;57543;45.442;9.212;2024-02-21T06:29:40;11.66;55.28
70170;DHT22;57543;45.442;9.212;2024-02-21T06:32:44;11.72;54.76
70170;DHT22;57543;45.442;9.212;2024-02-21T06:35:48;11.62;54.69
70170;DHT22;57543;45.442;9.212;2024-02-21T06:38:51;11.25;54.98
70170;DHT22;57543;45.442;9.212;2024-02-21T06:41:55;11.38;55.41
70170;DHT22;57543;45.442;9.212;2024-02-21T06:45:01;11.49;55.50
70170;DHT22;57543;45.442;9.212;2024-02-21T06:48:07;11.55;55.60
70170;DHT22;57543;45.442;9.212;2024-02-21T06:51:11;11.46;55.59
70170;DHT22;57543;45.442;9.212;2024-02-21T06:54:21;11.46;56.27
70170;DHT22;57543;45.442;9.212;2024-02-21T06:57:24;11.54;56.34
70170;DHT22;57543;45.442;9.212;2024-02-21T07:00:29;11.38;56.17
70170;DHT22;57543;45.442;9.212;2024-02-21T07:03:36;11.55;56.06
70170;DHT22;57543;45.442;9.212;2024-02-21T07:06:39;11.67;55.88
70170;DHT22;57543;45.442;9.212;2024-02-21T07:09:43;11.84;55.88
70170;DHT22;57543;45.442;9.212;2024-02-21T07:12:46;12.01;55.64
70170;DHT22;57543;45.442;9.212;2024-02-21T07:15:49;12.18;55.35
70170;DHT22;57543;45.442;9.212;2024-02-21T07:18:55;12.31;55.13
70170;DHT22;57543;45.442;9.212;2024-02-21T07:21:58;12.32;55.00
70170;DHT22;57543;45.442;9.212;2024-02-21T07:25:05;12.35;55.09
70170;DHT22;57543;45.442;9.212;2024-02-21T07:28:12;12.50;55.52
70170;DHT22;57543;45.442;9.212;2024-02-21T07:31:17;12.57;55.42
70170;DHT22;57543;45.442;9.212;2024-02-21T07:34:23;12.67;55.60
70170;DHT22;57543;45.442;9.212;2024-02-21T07:37:27;12.60;56.01
70170;DHT22;57543;45.442;9.212;2024-02-21T07:40:31;12.69;56.79
70170;DHT22;57543;45.442;9.212;2024-02-21T07:43:35;12.73;55.14
70170;DHT22;57543;45.442;9.212;2024-02-21T07:46:39;12.94;55.25
70170;DHT22;57543;45.442;9.212;2024-02-21T07:49:44;13.03;54.60
70170;DHT22;57543;45.442;9.212;2024-02-21T07:52:51;13.32;53.64
70170;DHT22;57543;45.442;9.212;2024-02-21T07:55:55;13.35;52.96
70170;DHT22;57543;45.442;9.212;2024-02-21T07:59:01;13.72;52.31
70170;DHT22;57543;45.442;9.212;2024-02-21T08:02:08;13.81;51.73
70170;DHT22;57543;45.442;9.212;2024-02-21T08:05:12;14.34;50.71
70170;DHT22;57543;45.442;9.212;2024-02-21T08:08:15;14.58;50.47
70170;DHT22;57543;45.442;9.212;2024-02-21T08:11:24;14.53;50.86
70170;DHT22;57543;45.442;9.212;2024-02-21T08:14:27;14.58;50.35
70170;DHT22;57543;45.442;9.212;2024-02-21T08:17:31;14.08;50.64
70170;DHT22;57543;45.442;9.212;2024-02-21T08:20:40;13.90;51.01
70170;DHT22;57543;45.442;9.212;2024-02-21T08:23:49;13.94;50.91
70170;DHT22;57543;45.442;9.212;2024-02-21T08:26:55;13.32;52.05
70170;DHT22;57543;45.442;9.212;2024-02-21T08:29:58;13.04;52.91
70170;DHT22;57543;45.442;9.212;2024-02-21T08:33:04;12.96;53.79
70170;DHT22;57543;45.442;9.212;2024-02-21T08:36:07;13.04;53.94
70170;DHT22;57543;45.442;9.212;2024-02-21T08:39:12;12.83;54.37
70170;DHT22;57543;45.442;9.212;2024-02-21T08:42:22;13.06;53.75
70170;DHT22;57543;45.442;9.212;2024-02-21T08:45:25;13.28;53.94
70170;DHT22;57543;45.442;9.212;2024-02-21T08:48:29;13.59;52.71
70170;DHT22;57543;45.442;9.212;2024-02-21T08:51:40;13.87;52.23
70170;DHT22;57543;45.442;9.212;2024-02-21T08:54:49;14.26;51.69
70170;DHT22;57543;45.442;9.212;2024-02-21T08:57:57;14.63;50.82
70170;DHT22;57543;45.442;9.212;2024-02-21T09:01:01;14.73;50.85
70170;DHT22;57543;45.442;9.212;2024-02-21T09:04:04;15.34;48.22
70170;DHT22;57543;45.442;9.212;2024-02-21T09:07:08;15.76;47.17
70170;DHT22;57543;45.442;9.212;2024-02-21T09:10:11;16.55;45.76
70170;DHT22;57543;45.442;9.212;2024-02-21T09:13:17;17.29;44.94
70170;DHT22;57543;45.442;9.212;2024-02-21T09:16:21;17.45;44.72
70170;DHT22;57543;45.442;9.212;2024-02-21T09:19:26;17.83;44.72
70170;DHT22;57543;45.442;9.212;2024-02-21T09:22:30;17.19;45.09
70170;DHT22;57543;45.442;9.212;2024-02-21T09:25:37;16.90;46.04
70170;DHT22;57543;45.442;9.212;2024-02-21T09:28:41;17.04;45.58
70170;DHT22;57543;45.442;9.212;2024-02-21T09:31:44;17.35;44.73
70170;DHT22;57543;45.442;9.212;2024-02-21T09:34:49;17.59;44.90
70170;DHT22;57543;45.442;9.212;2024-02-21T09:37:53;17.52;43.68
70170;DHT22;57543;45.442;9.212;2024-02-21T09:41:25;17.61;43.41
70170;DHT22;57543;45.442;9.212;2024-02-21T09:44:33;17.04;43.50
70170;DHT22;57543;45.442;9.212;2024-02-21T09:51:03;17.19;43.72
70170;DHT22;57543;45.442;9.212;2024-02-21T09:54:11;17.49;43.75
70170;DHT22;57543;45.442;9.212;2024-02-21T09:57:15;17.52;42.56
70170;DHT22;57543;45.442;9.212;2024-02-21T10:00:20;17.69;42.19
70170;DHT22;57543;45.442;9.212;2024-02-21T10:03:26;17.83;44.01
70170;DHT22;57543;45.442;9.212;2024-02-21T10:06:33;18.08;42.23
70170;DHT22;57543;45.442;9.212;2024-02-21T10:09:38;17.87;41.65
70170;DHT22;57543;45.442;9.212;2024-02-21T10:12:50;18.11;41.38
70170;DHT22;57543;45.442;9.212;2024-02-21T10:16:03;18.08;41.22
70170;DHT22;57543;45.442;9.212;2024-02-21T10:19:06;18.28;41.65
70170;DHT22;57543;45.442;9.212;2024-02-21T10:22:13;17.97;42.69
70170;DHT22;57543;45.442;9.212;2024-02-21T10:25:18;18.14;41.81
70170;DHT22;57543;45.442;9.212;2024-02-21T10:28:23;18.43;41.92
70170;DHT22;57543;45.442;9.212;2024-02-21T10:31:27;18.00;42.47
70170;DHT22;57543;45.442;9.212;2024-02-21T10:34:31;18.38;42.15
70170;DHT22;57543;45.442;9.212;2024-02-21T10:37:35;18.66;41.46
70170;DHT22;57543;45.442;9.212;2024-02-21T10:40:38;18.64;42.07
70170;DHT22;57543;45.442;9.212;2024-02-21T10:43:54;19.00;41.50
70170;DHT22;57543;45.442;9.212;2024-02-21T10:46:58;18.49;42.49
70170;DHT22;57543;45.442;9.212;2024-02-21T10:50:03;18.62;42.92
70170;DHT22;57543;45.442;9.212;2024-02-21T10:53:20;18.98;42.90
70170;DHT22;57543;45.442;9.212;2024-02-21T10:56:34;19.29;42.83
70170;DHT22;57543;45.442;9.212;2024-02-21T10:59:40;19.34;43.29
70170;DHT22;57543;45.442;9.212;2024-02-21T11:02:46;19.53;43.93
70170;DHT22;57543;45.442;9.212;2024-02-21T11:05:51;19.29;43.97
70170;DHT22;57543;45.442;9.212;2024-02-21T11:09:02;18.94;44.64
70170;DHT22;57543;45.442;9.212;2024-02-21T11:12:09;19.24;44.41
70170;DHT22;57543;45.442;9.212;2024-02-21T11:15:13;19.59;43.09
70170;DHT22;57543;45.442;9.212;2024-02-21T11:18:26;19.94;42.62
70170;DHT22;57543;45.442;9.212;2024-02-21T11:21:34;20.38;42.08
70170;DHT22;57543;45.442;9.212;2024-02-21T11:24:39;20.48;41.72
70170;DHT22;57543;45.442;9.212;2024-02-21T11:27:46;20.29;42.73
70170;DHT22;57543;45.442;9.212;2024-02-21T11:31:07;20.67;41.97
70170;DHT22;57543;45.442;9.212;2024-02-21T11:34:13;20.88;40.88
70170;DHT22;57543;45.442;9.212;2024-02-21T11:37:25;21.41;41.08
70170;DHT22;57543;45.442;9.212;2024-02-21T11:40:28;22.59;39.36
70170;DHT22;57543;45.442;9.212;2024-02-21T11:43:34;23.62;37.87
70170;DHT22;57543;45.442;9.212;2024-02-21T11:46:44;23.98;37.06
70170;DHT22;57543;45.442;9.212;2024-02-21T11:49:48;25.06;35.83
70170;DHT22;57543;45.442;9.212;2024-02-21T11:52:58;24.86;35.95
70170;DHT22;57543;45.442;9.212;2024-02-21T11:56:02;25.50;36.04
70170;DHT22;57543;45.442;9.212;2024-02-21T11:59:06;26.05;34.71
70170;DHT22;57543;45.442;9.212;2024-02-21T12:02:10;25.73;35.61
70170;DHT22;57543;45.442;9.212;2024-02-21T12:05:15;25.84;36.07
70170;DHT22;57543;45.442;9.212;2024-02-21T12:08:18;25.42;37.41
70170;DHT22;57543;45.442;9.212;2024-02-21T12:11:31;24.69;39.19
70170;DHT22;57543;45.442;9.212;2024-02-21T12:14:38;23.70;41.38
70170;DHT22;57543;45.442;9.212;2024-02-21T12:17:42;23.31;41.92
70170;DHT22;57543;45.442;9.212;2024-02-21T12:20:50;22.93;42.38
70170;DHT22;57543;45.442;9.212;2024-02-21T12:24:45;22.74;42.62
70170;DHT22;57543;45.442;9.212;2024-02-21T12:27:24;22.41;43.34
70170;DHT22;57543;45.442;9.212;2024-02-21T12:30:34;22.11;44.33
70170;DHT22;57543;45.442;9.212;2024-02-21T12:33:41;21.48;45.24
70170;DHT22;57543;45.442;9.212;2024-02-21T12:36:45;21.49;45.53
70170;DHT22;57543;45.442;9.212;2024-02-21T12:39:52;21.35;46.34
70170;DHT22;57543;45.442;9.212;2024-02-21T12:42:59;21.05;46.50
70170;DHT22;57543;45.442;9.212;2024-02-21T12:46:23;20.75;47.04
70170;DHT22;57543;45.442;9.212;2024-02-21T12:49:30;20.65;47.37
70170;DHT22;57543;45.442;9.212;2024-02-21T12:52:35;20.70;47.27
70170;DHT22;57543;45.442;9.212;2024-02-21T12:55:55;20.76;47.57
70170;DHT22;57543;45.442;9.212;2024-02-21T12:59:08;20.50;47.83
70170;DHT22;57543;45.442;9.212;2024-02-21T13:02:23;20.39;49.22
70170;DHT22;57543;45.442;9.212;2024-02-21T13:05:33;20.05;48.81
70170;DHT22;57543;45.442;9.212;2024-02-21T13:08:44;20.13;48.80
70170;DHT22;57543;45.442;9.212;2024-02-21T13:11:49;19.97;49.16
70170;DHT22;57543;45.442;9.212;2024-02-21T13:14:57;20.24;48.87
70170;DHT22;57543;45.442;9.212;2024-02-21T13:18:01;20.49;48.34
70170;DHT22;57543;45.442;9.212;2024-02-21T13:21:05;20.25;48.08
70170;DHT22;57543;45.442;9.212;2024-02-21T13:24:11;20.10;48.82
70170;DHT22;57543;45.442;9.212;2024-02-21T13:27:15;20.38;48.25
70170;DHT22;57543;45.442;9.212;2024-02-21T13:30:19;20.38;48.63
70170;DHT22;57543;45.442;9.212;2024-02-21T13:33:25;20.15;49.23
70170;DHT22;57543;45.442;9.212;2024-02-21T13:36:29;20.50;48.32
70170;DHT22;57543;45.442;9.212;2024-02-21T13:39:38;20.60;47.83
70170;DHT22;57543;45.442;9.212;2024-02-21T13:42:45;20.42;48.04
70170;DHT22;57543;45.442;9.212;2024-02-21T13:46:01;20.48;48.19
70170;DHT22;57543;45.442;9.212;2024-02-21T13:49:18;20.42;48.56
70170;DHT22;57543;45.442;9.212;2024-02-21T13:52:25;20.52;47.76
70170;DHT22;57543;45.442;9.212;2024-02-21T13:55:34;20.22;48.25
70170;DHT22;57543;45.442;9.212;2024-02-21T13:58:38;19.88;49.09
70170;DHT22;57543;45.442;9.212;2024-02-21T14:01:41;19.73;49.78
70170;DHT22;57543;45.442;9.212;2024-02-21T14:04:47;19.98;49.39
70170;DHT22;57543;45.442;9.212;2024-02-21T14:07:54;20.15;48.95
70170;DHT22;57543;45.442;9.212;2024-02-21T14:10:58;20.24;48.39
70170;DHT22;57543;45.442;9.212;2024-02-21T14:14:06;20.10;48.80
70170;DHT22;57543;45.442;9.212;2024-02-21T14:17:20;19.97;49.18
70170;DHT22;57543;45.442;9.212;2024-02-21T14:20:31;20.11;49.01
70170;DHT22;57543;45.442;9.212;2024-02-21T14:23:35;20.15;48.76
70170;DHT22;57543;45.442;9.212;2024-02-21T14:26:48;20.22;48.61
70170;DHT22;57543;45.442;9.212;2024-02-21T14:29:54;20.05;49.12
70170;DHT22;57543;45.442;9.212;2024-02-21T14:33:01;19.98;49.54
70170;DHT22;57543;45.442;9.212;2024-02-21T14:36:10;19.90;49.73
70170;DHT22;57543;45.442;9.212;2024-02-21T14:39:17;19.91;49.49
70170;DHT22;57543;45.442;9.212;2024-02-21T14:42:27;19.94;49.33
70170;DHT22;57543;45.442;9.212;2024-02-21T14:45:34;19.80;50.21
70170;DHT22;57543;45.442;9.212;2024-02-21T14:48:42;19.32;50.39
70170;DHT22;57543;45.442;9.212;2024-02-21T14:51:51;19.58;50.30
70170;DHT22;57543;45.442;9.212;2024-02-21T14:54:55;19.46;50.34
70170;DHT22;57543;45.442;9.212;2024-02-21T14:58:07;19.55;50.22
70170;DHT22;57543;45.442;9.212;2024-02-21T15:01:14;19.51;50.55
70170;DHT22;57543;45.442;9.212;2024-02-21T15:04:20;19.38;50.70
70170;DHT22;57543;45.442;9.212;2024-02-21T15:07:24;19.31;50.89
70170;DHT22;57543;45.442;9.212;2024-02-21T15:10:28;19.05;51.47
70170;DHT22;57543;45.442;9.212;2024-02-21T15:13:32;19.04;51.68
70170;DHT22;57543;45.442;9.212;2024-02-21T15:16:35;18.96;51.93
70170;DHT22;57543;45.442;9.212;2024-02-21T15:19:42;18.90;52.23
70170;DHT22;57543;45.442;9.212;2024-02-21T15:22:47;18.94;52.05
70170;DHT22;57543;45.442;9.212;2024-02-21T15:25:51;18.79;52.39
70170;DHT22;57543;45.442;9.212;2024-02-21T15:28:57;18.09;54.11
70170;DHT22;57543;45.442;9.212;2024-02-21T15:32:02;18.11;54.17
70170;DHT22;57543;45.442;9.212;2024-02-21T15:35:11;18.07;54.51
70170;DHT22;57543;45.442;9.212;2024-02-21T15:38:15;18.35;54.00
70170;DHT22;57543;45.442;9.212;2024-02-21T15:41:27;18.24;53.73
70170;DHT22;57543;45.442;9.212;2024-02-21T15:44:33;18.25;53.79
70170;DHT22;57543;45.442;9.212;2024-02-21T15:47:45;18.41;53.63
70170;DHT22;57543;45.442;9.212;2024-02-21T15:50:49;18.05;53.53
70170;DHT22;57543;45.442;9.212;2024-02-21T15:53:59;18.01;53.58
70170;DHT22;57543;45.442;9.212;2024-02-21T15:57:07;18.04;53.77
70170;DHT22;57543;45.442;9.212;2024-02-21T16:00:13;17.94;54.03
70170;DHT22;57543;45.442;9.212;2024-02-21T16:03:17;17.86;54.19
70170;DHT22;57543;45.442;9.212;2024-02-21T16:06:28;17.77;54.58
70170;DHT22;57543;45.442;9.212;2024-02-21T16:09:35;17.76;55.22
70170;DHT22;57543;45.442;9.212;2024-02-21T16:12:41;17.56;54.60
70170;DHT22;57543;45.442;9.212;2024-02-21T16:15:50;17.34;55.47
70170;DHT22;57543;45.442;9.212;2024-02-21T16:18:59;17.14;55.94
70170;DHT22;57543;45.442;9.212;2024-02-21T16:22:05;17.21;56.08
70170;DHT22;57543;45.442;9.212;2024-02-21T16:25:10;17.25;56.97
70170;DHT22;57543;45.442;9.212;2024-02-21T16:28:16;17.17;57.49
70170;DHT22;57543;45.442;9.212;2024-02-21T16:31:19;17.17;57.36
70170;DHT22;57543;45.442;9.212;2024-02-21T16:34:23;17.18;57.46
70170;DHT22;57543;45.442;9.212;2024-02-21T16:37:27;17.11;57.65
70170;DHT22;57543;45.442;9.212;2024-02-21T16:40:30;17.07;57.92
70170;DHT22;57543;45.442;9.212;2024-02-21T16:43:33;16.94;57.97
70170;DHT22;57543;45.442;9.212;2024-02-21T16:46:43;16.77;58.19
70170;DHT22;57543;45.442;9.212;2024-02-21T16:49:47;16.57;58.69
70170;DHT22;57543;45.442;9.212;2024-02-21T16:52:52;16.45;59.07
70170;DHT22;57543;45.442;9.212;2024-02-21T16:55:59;16.26;59.50
70170;DHT22;57543;45.442;9.212;2024-02-21T16:59:14;16.07;59.71
70170;DHT22;57543;45.442;9.212;2024-02-21T17:02:17;16.10;59.78
70170;DHT22;57543;45.442;9.212;2024-02-21T17:05:24;16.11;59.82
70170;DHT22;57543;45.442;9.212;2024-02-21T17:08:30;16.12;59.68
70170;DHT22;57543;45.442;9.212;2024-02-21T17:11:37;16.24;59.69
70170;DHT22;57543;45.442;9.212;2024-02-21T17:14:51;16.17;59.90
70170;DHT22;57543;45.442;9.212;2024-02-21T17:18:06;16.11;59.80
70170;DHT22;57543;45.442;9.212;2024-02-21T17:21:13;16.05;60.06
70170;DHT22;57543;45.442;9.212;2024-02-21T17:24:17;16.05;60.17
70170;DHT22;57543;45.442;9.212;2024-02-21T17:27:21;16.00;60.16
70170;DHT22;57543;45.442;9.212;2024-02-21T17:30:29;16.00;60.12
70170;DHT22;57543;45.442;9.212;2024-02-21T17:33:32;15.82;60.73
70170;DHT22;57543;45.442;9.212;2024-02-21T17:36:36;15.83;60.60
70170;DHT22;57543;45.442;9.212;2024-02-21T17:39:39;15.83;60.76
70170;DHT22;57543;45.442;9.212;2024-02-21T17:42:43;15.89;60.53
70170;DHT22;57543;45.442;9.212;2024-02-21T17:45:48;15.94;60.31
70170;DHT22;57543;45.442;9.212;2024-02-21T17:48:59;15.96;60.13
70170;DHT22;57543;45.442;9.212;2024-02-21T17:52:05;15.93;60.27
70170;DHT22;57543;45.442;9.212;2024-02-21T17:55:08;15.77;60.65
70170;DHT22;57543;45.442;9.212;2024-02-21T17:58:13;15.82;60.68
70170;DHT22;57543;45.442;9.212;2024-02-21T18:01:32;15.77;60.89
70170;DHT22;57543;45.442;9.212;2024-02-21T18:04:44;15.79;61.03
70170;DHT22;57543;45.442;9.212;2024-02-21T18:07:49;15.76;60.87
70170;DHT22;57543;45.442;9.212;2024-02-21T18:10:53;15.67;61.08
70170;DHT22;57543;45.442;9.212;2024-02-21T18:13:58;15.65;61.24
70170;DHT22;57543;45.442;9.212;2024-02-21T18:17:08;15.65;61.47
70170;DHT22;57543;45.442;9.212;2024-02-21T18:20:12;15.52;62.04
70170;DHT22;57543;45.442;9.212;2024-02-21T18:23:18;15.45;62.33
70170;DHT22;57543;45.442;9.212;2024-02-21T18:26:22;15.35;62.79
70170;DHT22;57543;45.442;9.212;2024-02-21T18:29:25;15.21;63.23
70170;DHT22;57543;45.442;9.212;2024-02-21T18:32:35;15.22;63.18
70170;DHT22;57543;45.442;9.212;2024-02-21T18:35:39;15.18;63.51
70170;DHT22;57543;45.442;9.212;2024-02-21T18:38:48;15.18;63.45
70170;DHT22;57543;45.442;9.212;2024-02-21T18:41:57;15.17;63.66
70170;DHT22;57543;45.442;9.212;2024-02-21T18:45:00;15.08;63.78
70170;DHT22;57543;45.442;9.212;2024-02-21T18:48:07;15.11;64.10
70170;DHT22;57543;45.442;9.212;2024-02-21T18:51:15;15.12;63.97
70170;DHT22;57543;45.442;9.212;2024-02-21T18:54:25;15.18;63.78
70170;DHT22;57543;45.442;9.212;2024-02-21T18:57:31;15.05;63.95
70170;DHT22;57543;45.442;9.212;2024-02-21T19:00:37;14.94;64.46
70170;DHT22;57543;45.442;9.212;2024-02-21T19:03:43;14.86;64.95
70170;DHT22;57543;45.442;9.212;2024-02-21T19:06:46;14.93;64.83
70170;DHT22;57543;45.442;9.212;2024-02-21T19:10:02;14.94;64.78
70170;DHT22;57543;45.442;9.212;2024-02-21T19:13:08;15.03;64.52
70170;DHT22;57543;45.442;9.212;2024-02-21T19:16:12;14.87;64.94
70170;DHT22;57543;45.442;9.212;2024-02-21T19:19:20;14.80;65.39
70170;DHT22;57543;45.442;9.212;2024-02-21T19:22:27;14.79;65.32
70170;DHT22;57543;45.442;9.212;2024-02-21T19:25:37;14.87;65.33
70170;DHT22;57543;45.442;9.212;2024-02-21T19:28:53;14.88;65.31
70170;DHT22;57543;45.442;9.212;2024-02-21T19:32:15;14.77;65.66
70170;DHT22;57543;45.442;9.212;2024-02-21T19:35:25;14.77;65.58
70170;DHT22;57543;45.442;9.212;2024-02-21T19:38:32;14.70;65.78